.
WxDataArchive / Data Records for 2010-07-03
2010-07-02 July 2010 2010-07-04

Data Records for Saturday, 03 July 2010

Time	Temp	Chill	HIndex	Humid	Dewpt	 Wind 	HiWind	WindDir	Rain 	Barom 
-----	----	-----	------	-----	-----	------	------	-------	-----	----- 
00:00	60.9	60.9	60.9	78	54.0	0	0	---	0.00	30.165 
00:05	60.7	60.7	60.7	79	54.1	0	0	---	0.00	30.165 
00:10	60.5	60.5	60.5	80	54.3	0	0	---	0.00	30.165 
00:15	60.2	60.2	60.2	80	54.0	0	0	---	0.00	30.163 
00:20	60.1	60.1	60.1	80	53.9	0	0	---	0.00	30.163 
00:25	59.9	59.9	59.9	80	53.7	0	0	---	0.00	30.163 
00:30	59.8	59.8	59.8	81	54.0	0	0	---	0.00	30.161 
00:35	59.5	59.5	59.5	81	53.7	0	0	---	0.00	30.161 
00:40	59.3	59.3	59.3	81	53.5	0	0	---	0.00	30.161 
00:45	59.2	59.2	59.2	81	53.4	0	0	---	0.00	30.158 
00:50	59.0	59.0	59.0	82	53.5	0	0	---	0.00	30.158 
00:55	58.9	58.9	58.9	83	53.7	0	0	---	0.00	30.158 
01:00	58.7	58.7	58.7	84	53.9	0	0	---	0.00	30.158 
01:05	58.4	58.4	58.4	84	53.6	0	0	---	0.00	30.158 
01:10	58.3	58.3	58.3	85	53.8	0	0	---	0.00	30.158 
01:15	58.1	58.1	58.1	85	53.6	0	0	---	0.00	30.155 
01:20	58.0	58.0	58.0	85	53.5	0	0	---	0.00	30.155 
01:25	57.8	57.8	57.8	85	53.3	0	0	---	0.00	30.155 
01:30	57.6	57.6	57.6	86	53.4	0	0	---	0.00	30.154 
01:35	57.5	57.5	57.5	86	53.3	0	0	---	0.00	30.154 
01:40	57.3	57.3	57.3	87	53.5	0	0	---	0.00	30.154 
01:45	57.2	57.2	57.2	87	53.4	0	0	---	0.00	30.160 
01:50	57.0	57.0	57.0	87	53.2	0	0	---	0.00	30.160 
01:55	57.0	57.0	57.0	88	53.5	0	0	---	0.00	30.160 
02:00	56.9	56.9	56.9	88	53.4	0	0	---	0.00	30.159 
02:05	56.7	56.7	56.7	88	53.2	0	0	---	0.00	30.159 
02:10	56.6	56.6	56.6	88	53.1	0	0	---	0.00	30.159 
02:15	56.5	56.5	56.5	88	53.0	0	0	---	0.00	30.153 
02:20	56.5	56.5	56.5	89	53.3	0	0	---	0.00	30.153 
02:25	56.3	56.3	56.3	89	53.1	0	0	---	0.00	30.153 
02:30	56.3	56.3	56.3	89	53.1	0	0	---	0.00	30.150 
02:35	56.2	56.2	56.2	89	53.0	0	0	---	0.00	30.150 
02:40	56.2	56.2	56.2	90	53.3	0	0	---	0.00	30.150 
02:45	56.0	56.0	56.0	90	53.1	0	0	---	0.00	30.152 
02:50	55.9	55.9	55.9	90	53.0	0	0	---	0.00	30.152 
02:55	55.9	55.9	55.9	90	53.0	0	0	---	0.00	30.152 
03:00	55.7	55.7	55.7	90	52.8	0	0	---	0.00	30.149 
03:05	55.6	55.6	55.6	90	52.7	0	0	---	0.00	30.149 
03:10	55.4	55.4	55.4	91	52.8	0	0	---	0.00	30.149 
03:15	55.3	55.3	55.3	91	52.7	0	0	---	0.00	30.149 
03:20	55.1	55.1	55.1	91	52.5	0	0	---	0.00	30.149 
03:25	55.1	55.1	55.1	91	52.5	0	0	---	0.00	30.149 
03:30	55.1	55.1	55.1	91	52.5	0	0	---	0.00	30.147 
03:35	55.0	55.0	55.0	91	52.4	0	0	---	0.00	30.147 
03:40	55.0	55.0	55.0	91	52.4	0	0	---	0.00	30.147 
03:45	54.8	54.8	54.8	91	52.2	0	0	---	0.00	30.148 
03:50	54.7	54.7	54.7	91	52.1	0	0	---	0.00	30.148 
03:55	54.5	54.5	54.5	92	52.2	0	0	---	0.00	30.148 
04:00	54.5	54.5	54.5	92	52.2	0	0	---	0.00	30.147 
04:05	54.4	54.4	54.4	92	52.1	0	0	---	0.00	30.147 
04:10	54.4	54.4	54.4	92	52.1	0	0	---	0.00	30.147 
04:15	54.2	54.2	54.2	92	51.9	0	0	---	0.00	30.151 
04:20	54.2	54.2	54.2	92	51.9	0	0	---	0.00	30.151 
04:25	54.2	54.2	54.2	92	51.9	0	0	---	0.00	30.151 
04:30	54.1	54.1	54.1	92	51.8	0	0	---	0.00	30.158 
04:35	54.1	54.1	54.1	92	51.8	0	0	---	0.00	30.158 
04:40	54.1	54.1	54.1	92	51.8	0	0	---	0.00	30.158 
04:45	53.9	53.9	53.9	92	51.6	0	0	---	0.00	30.155 
04:50	53.8	53.8	53.8	92	51.5	0	0	---	0.00	30.155 
04:55	53.8	53.8	53.8	92	51.5	0	0	---	0.00	30.155 
05:00	53.6	53.6	53.6	92	51.3	0	0	---	0.00	30.153 
05:05	53.5	53.5	53.5	92	51.2	0	0	---	0.00	30.153 
05:10	53.5	53.5	53.5	92	51.2	0	0	---	0.00	30.153 
05:15	53.3	53.3	53.3	92	51.0	0	0	---	0.00	30.157 
05:20	53.2	53.2	53.2	92	50.9	0	0	---	0.00	30.157 
05:25	53.2	53.2	53.2	92	50.9	0	0	---	0.00	30.157 
05:30	53.1	53.1	53.1	92	50.8	0	0	---	0.00	30.158 
05:35	53.1	53.1	53.1	92	50.8	0	0	---	0.00	30.158 
05:40	53.1	53.1	53.1	92	50.8	0	0	---	0.00	30.158 
05:45	53.1	53.1	53.1	92	50.8	0	0	---	0.00	30.158 
05:50	52.9	52.9	52.9	92	50.6	0	0	---	0.00	30.158 
05:55	52.9	52.9	52.9	93	50.9	0	0	---	0.00	30.158 
06:00	52.9	52.9	52.9	93	50.9	0	0	---	0.00	30.157 
06:05	52.8	52.8	52.8	93	50.8	0	0	---	0.00	30.157 
06:10	52.6	52.6	52.6	93	50.6	0	0	---	0.00	30.157 
06:15	52.6	52.6	52.6	93	50.6	0	0	---	0.00	30.160 
06:20	52.6	52.6	52.6	93	50.6	0	0	---	0.00	30.160 
06:25	52.5	52.5	52.5	93	50.5	0	0	---	0.00	30.160 
06:30	52.6	52.6	52.6	93	50.6	0	0	---	0.00	30.159 
06:35	52.6	52.6	52.6	93	50.6	0	0	---	0.00	30.159 
06:40	52.8	52.8	52.8	93	50.8	0	0	---	0.00	30.159 
06:45	52.8	52.8	52.8	94	51.1	0	0	---	0.00	30.160 
06:50	52.9	52.9	52.9	94	51.2	0	0	---	0.00	30.160 
06:55	53.1	53.1	53.1	94	51.4	0	0	---	0.00	30.160 
07:00	53.2	53.2	53.2	94	51.5	0	0	---	0.00	30.162 
07:05	53.3	53.3	53.3	94	51.6	0	0	---	0.00	30.162 
07:10	53.6	53.6	53.6	94	51.9	0	0	---	0.00	30.162 
07:15	53.9	53.9	53.9	94	52.2	0	0	---	0.00	30.168 
07:20	54.4	54.4	54.4	94	52.7	0	0	---	0.00	30.168 
07:25	54.7	54.7	54.7	94	53.0	0	0	---	0.00	30.168 
07:30	55.3	55.3	55.3	94	53.6	0	0	---	0.00	30.168 
07:35	55.9	55.9	55.9	94	54.2	0	0	---	0.00	30.168 
07:40	56.6	56.6	56.6	93	54.6	0	0	---	0.00	30.168 
07:45	57.8	57.8	57.8	93	55.8	0	0	---	0.00	30.173 
07:50	59.3	59.3	59.3	88	55.7	0	0	---	0.00	30.173 
07:55	60.7	60.7	60.7	81	54.8	0	0	---	0.00	30.173 
08:00	62.1	62.1	62.1	75	54.1	0	0	---	0.00	30.172 
08:05	63.4	63.4	63.4	70	53.4	0	1	90	0.00	30.172 
08:10	64.7	64.7	64.7	68	53.9	0	1	90	0.00	30.172 
08:15	65.8	65.8	65.8	65	53.7	0	1	90	0.00	30.167 
08:20	66.9	66.9	66.9	63	53.9	0	1	90	0.00	30.167 
08:25	67.8	67.8	67.8	62	54.3	0	1	90	0.00	30.167 
08:30	68.9	68.9	68.9	59	54.0	0	1	90	0.00	30.162 
08:35	69.9	69.9	69.9	58	54.4	0	1	90	0.00	30.162 
08:40	70.6	70.6	70.6	58	55.1	0	2	90	0.00	30.162 
08:45	71.3	71.3	71.3	55	54.3	0	1	112	0.00	30.162 
08:50	72.1	72.1	72.1	55	55.0	0	1	112	0.00	30.162 
08:55	72.7	72.7	72.7	53	54.6	0	2	158	0.00	30.162 
09:00	73.2	73.2	73.2	55	56.0	0	1	158	0.00	30.161 
09:05	73.7	73.7	73.7	52	55.0	0	1	158	0.00	30.161 
09:10	73.9	73.9	73.9	52	55.1	0	1	158	0.00	30.161 
09:15	73.7	73.7	73.7	52	55.0	0	2	158	0.00	30.164 
09:20	73.9	73.9	73.9	51	54.6	0	4	90	0.00	30.164 
09:25	74.0	74.0	74.0	50	54.2	1	4	90	0.00	30.164 
09:30	73.7	73.7	73.7	52	55.0	0	1	248	0.00	30.166 
09:35	74.0	74.0	74.0	50	54.2	0	3	135	0.00	30.166 
09:40	74.4	74.4	74.4	50	54.5	0	2	158	0.00	30.166 
09:45	75.1	75.1	77.7	47	53.5	1	3	90	0.00	30.159 
09:50	75.4	75.4	77.7	45	52.6	1	3	90	0.00	30.159 
09:55	75.4	75.4	77.8	46	53.2	1	3	90	0.00	30.159 
10:00	75.4	75.4	77.8	47	53.7	0	2	225	0.00	30.159 
10:05	75.8	75.8	77.9	44	52.3	1	4	225	0.00	30.159 
10:10	75.8	75.8	77.9	47	54.1	1	3	270	0.00	30.159 
10:15	75.8	75.8	77.9	46	53.5	1	3	270	0.00	30.159 
10:20	76.3	76.3	78.1	46	54.0	1	3	248	0.00	30.159 
10:25	77.0	77.0	78.5	48	55.8	0	2	112	0.00	30.159 
10:30	77.7	77.7	78.9	46	55.2	0	2	112	0.00	30.149 
10:35	77.9	77.9	78.8	43	53.6	1	3	112	0.00	30.149 
10:40	78.1	78.1	79.1	46	55.6	1	5	68	0.00	30.149 
10:45	78.1	78.1	79.0	44	54.4	1	2	270	0.00	30.146 
10:50	78.1	78.1	79.1	46	55.6	0	2	270	0.00	30.146 
10:55	78.1	78.1	78.9	43	53.8	1	4	270	0.00	30.146 
11:00	78.3	78.3	79.0	42	53.3	1	3	112	0.00	30.145 
11:05	78.6	78.6	79.4	46	56.1	1	4	90	0.00	30.145 
11:10	78.6	78.6	79.3	44	54.8	1	3	90	0.00	30.145 
11:15	79.0	79.0	79.4	42	53.9	1	3	112	0.00	30.144 
11:20	79.0	79.0	79.6	45	55.8	1	3	292	0.00	30.144 
11:25	78.8	78.8	79.4	43	54.4	0	2	315	0.00	30.144 
11:30	79.2	79.2	79.6	43	54.7	1	3	135	0.00	30.143 
11:35	79.6	79.6	79.8	42	54.5	1	3	202	0.00	30.143 
11:40	79.8	79.8	80.0	43	55.3	1	3	90	0.00	30.143 
11:45	79.8	79.8	79.8	40	53.3	1	4	90	0.00	30.137 
11:50	79.6	79.6	79.7	40	53.1	2	5	90	0.00	30.137 
11:55	79.6	79.6	79.7	41	53.8	1	2	112	0.00	30.137 
12:00	79.9	79.9	80.1	43	55.4	0	3	112	0.00	30.136 
12:05	80.3	80.3	80.0	38	52.4	0	2	112	0.00	30.136 
12:10	80.9	80.9	80.3	37	52.2	1	4	90	0.00	30.136 
12:15	81.1	81.1	80.7	40	54.5	1	5	22	0.00	30.128 
12:20	81.1	81.1	80.6	39	53.8	1	3	270	0.00	30.128 
12:25	81.1	81.1	80.6	39	53.8	1	4	270	0.00	30.128 
12:30	81.2	81.2	80.8	40	54.6	1	4	22	0.00	30.121 
12:35	81.2	81.2	80.6	38	53.1	1	3	112	0.00	30.121 
12:40	80.9	80.9	80.4	38	52.9	1	4	270	0.00	30.121 
12:45	81.1	81.1	80.6	39	53.8	1	5	90	0.00	30.117 
12:50	81.4	81.4	80.9	39	54.0	1	4	135	0.00	30.117 
12:55	81.4	81.4	80.8	38	53.3	1	3	338	0.00	30.117 
13:00	81.8	81.8	80.9	36	52.2	1	4	68	0.00	30.115 
13:05	82.0	82.0	80.9	35	51.6	1	5	90	0.00	30.115 
13:10	82.0	82.0	80.9	35	51.6	1	3	90	0.00	30.115 
13:15	82.2	82.2	81.2	36	52.6	1	3	90	0.00	30.116 
13:20	82.4	82.4	81.7	39	54.9	1	3	90	0.00	30.116 
13:25	82.6	82.6	81.4	35	52.1	1	2	68	0.00	30.116 
13:30	82.6	82.6	81.4	35	52.1	2	4	112	0.00	30.111 
13:35	82.8	82.8	81.6	35	52.3	1	4	90	0.00	30.111 
13:40	83.0	83.0	81.6	34	51.7	1	3	22	0.00	30.111 
13:45	83.2	83.2	81.8	34	51.9	1	5	90	0.00	30.103 
13:50	83.2	83.2	81.9	35	52.7	1	4	90	0.00	30.103 
13:55	83.2	83.2	81.8	34	51.9	1	4	270	0.00	30.103 
14:00	83.4	83.4	82.1	35	52.8	0	2	90	0.00	30.098 
14:05	84.0	84.0	83.0	38	55.6	1	4	90	0.00	30.098 
14:10	84.1	84.1	82.4	33	51.9	1	3	90	0.00	30.098 
14:15	84.1	84.1	82.4	33	51.9	1	3	270	0.00	30.093 
14:20	84.3	84.3	83.1	37	55.2	1	7	90	0.00	30.093 
14:25	84.1	84.1	82.7	35	53.5	1	4	248	0.00	30.093 
14:30	84.1	84.1	82.5	34	52.7	1	4	112	0.00	30.087 
14:35	84.5	84.5	82.6	32	51.4	1	3	112	0.00	30.087 
14:40	84.5	84.5	82.4	30	49.6	2	5	90	0.00	30.087 
14:45	84.7	84.7	82.7	31	50.7	2	5	68	0.00	30.086 
14:50	84.7	84.7	82.8	32	51.5	1	4	270	0.00	30.086 
14:55	84.9	84.9	83.0	32	51.7	1	3	90	0.00	30.086 
15:00	85.1	85.1	83.3	33	52.7	1	4	90	0.00	30.086 
15:05	85.1	85.1	82.9	30	50.1	2	5	90	0.00	30.086 
15:10	85.3	85.3	83.4	32	52.1	1	4	90	0.00	30.086 
15:15	85.3	85.3	83.1	30	50.3	1	5	112	0.00	30.083 
15:20	85.7	85.7	83.7	32	52.4	1	3	112	0.00	30.083 
15:25	86.3	86.3	84.2	31	52.1	0	2	270	0.00	30.083 
15:30	86.3	86.3	84.2	31	52.1	1	4	68	0.00	30.080 
15:35	86.7	86.7	84.7	32	53.3	0	3	68	0.00	30.080 
15:40	87.2	87.2	84.6	28	50.1	0	3	90	0.00	30.080 
15:45	87.2	87.2	84.6	28	50.1	1	2	135	0.00	30.077 
15:50	87.0	87.0	84.4	28	49.9	1	3	68	0.00	30.077 
15:55	87.0	87.0	84.3	27	48.9	1	3	270	0.00	30.077 
16:00	87.2	87.2	85.6	34	55.4	1	3	112	0.00	30.066 
16:05	87.2	87.2	85.2	32	53.7	1	5	112	0.00	30.066 
16:10	87.2	87.2	84.9	30	52.0	2	5	112	0.00	30.066 
16:15	87.0	87.0	84.9	31	52.7	1	3	158	0.00	30.065 
16:20	87.0	87.0	84.4	28	49.9	1	4	292	0.00	30.065 
16:25	86.7	86.7	84.6	31	52.4	1	3	292	0.00	30.065 
16:30	86.5	86.5	84.4	31	52.2	1	5	292	0.00	30.065 
16:35	87.0	87.0	84.9	31	52.7	1	3	0	0.00	30.065 
16:40	86.7	86.7	84.1	28	49.7	1	4	292	0.00	30.065 
16:45	86.3	86.3	84.2	31	52.1	1	6	292	0.00	30.063 
16:50	86.3	86.3	83.8	28	49.3	1	7	292	0.00	30.063 
16:55	86.5	86.5	84.1	29	50.4	1	7	225	0.00	30.063 
17:00	86.7	86.7	84.0	27	48.7	1	3	112	0.00	30.055 
17:05	87.0	87.0	84.7	30	51.8	1	3	112	0.00	30.055 
17:10	86.7	86.7	84.0	27	48.7	1	4	270	0.00	30.055 
17:15	86.5	86.5	84.0	28	49.5	1	4	270	0.00	30.054 
17:20	86.5	86.5	83.8	27	48.5	0	2	292	0.00	30.054 
17:25	86.7	86.7	84.0	27	48.7	1	3	292	0.00	30.054 
17:30	86.5	86.5	83.8	27	48.5	1	4	292	0.00	30.048 
17:35	86.5	86.5	83.8	27	48.5	1	4	248	0.00	30.048 
17:40	86.5	86.5	84.0	28	49.5	1	3	248	0.00	30.048 
17:45	86.3	86.3	83.6	26	47.3	1	3	270	0.00	30.046 
17:50	86.3	86.3	83.7	27	48.3	1	3	248	0.00	30.046 
17:55	86.3	86.3	83.7	27	48.3	0	3	90	0.00	30.046 
18:00	86.3	86.3	83.6	26	47.3	1	4	90	0.00	30.045 
18:05	85.7	85.7	83.2	28	48.8	2	6	90	0.00	30.045 
18:10	85.3	85.3	82.9	28	48.5	0	3	90	0.00	30.045 
18:15	85.1	85.1	82.6	27	47.3	1	3	90	0.00	30.043 
18:20	84.9	84.9	82.8	30	50.0	1	5	112	0.00	30.043 
18:25	84.7	84.7	82.7	31	50.7	1	4	248	0.00	30.043 
18:30	84.3	84.3	82.2	29	48.5	1	3	292	0.00	30.043 
18:35	84.1	84.1	81.9	28	47.4	1	3	292	0.00	30.043 
18:40	83.8	83.8	81.7	29	48.1	0	2	270	0.00	30.043 
18:45	83.8	83.8	81.8	30	49.0	0	2	270	0.00	30.042 
18:50	83.6	83.6	81.5	28	47.0	1	3	248	0.00	30.042 
18:55	83.6	83.6	81.5	28	47.0	0	2	270	0.00	30.042 
19:00	83.4	83.4	81.5	30	48.7	0	2	270	0.00	30.044 
19:05	83.4	83.4	81.4	29	47.8	0	3	248	0.00	30.044 
19:10	83.2	83.2	81.5	31	49.4	0	1	248	0.00	30.044 
19:15	83.0	83.0	81.3	31	49.2	0	2	248	0.00	30.038 
19:20	83.0	83.0	81.2	30	48.3	0	2	248	0.00	30.038 
19:25	83.0	83.0	81.3	31	49.2	0	1	248	0.00	30.038 
19:30	82.8	82.8	81.1	30	48.2	0	3	292	0.00	30.037 
19:35	82.8	82.8	81.2	31	49.0	0	2	292	0.00	30.037 
19:40	82.6	82.6	81.0	31	48.9	0	1	292	0.00	30.037 
19:45	82.4	82.4	80.9	32	49.5	0	1	292	0.00	30.033 
19:50	82.2	82.2	80.8	32	49.4	0	1	292	0.00	30.033 
19:55	82.0	82.0	80.8	34	50.8	0	3	270	0.00	30.033 
20:00	81.8	81.8	80.5	32	49.0	0	4	248	0.00	30.032 
20:05	81.8	81.8	80.5	32	49.0	1	2	248	0.00	30.032 
20:10	81.6	81.6	80.5	34	50.5	0	1	248	0.00	30.032 
20:15	81.4	81.4	80.4	34	50.3	0	2	248	0.00	30.023 
20:20	81.1	81.1	80.2	34	50.0	0	1	248	0.00	30.023 
20:25	81.1	81.1	80.3	35	50.8	0	1	248	0.00	30.023 
20:30	80.9	80.9	80.2	36	51.4	0	1	248	0.00	30.016 
20:35	80.5	80.5	79.9	36	51.1	0	1	248	0.00	30.016 
20:40	80.1	80.1	79.8	37	51.5	0	1	248	0.00	30.016 
20:45	79.9	79.9	79.6	37	51.3	0	1	248	0.00	30.018 
20:50	79.8	79.8	79.6	38	51.9	0	0	---	0.00	30.018 
20:55	79.4	79.4	79.5	39	52.3	0	1	248	0.00	30.018 
21:00	79.0	79.0	79.2	39	51.9	0	0	---	0.00	30.016 
21:05	78.6	78.6	79.0	40	52.2	0	0	---	0.00	30.016 
21:10	78.1	78.1	78.8	41	52.5	0	0	---	0.00	30.016 
21:15	77.7	77.7	78.6	41	52.1	0	0	---	0.00	30.012 
21:20	77.4	77.4	78.6	43	53.1	0	0	---	0.00	30.012 
21:25	76.7	76.7	78.3	44	53.1	0	0	---	0.00	30.012 
21:30	76.1	76.1	78.0	45	53.2	0	0	---	0.00	30.010 
21:35	75.8	75.8	77.9	46	53.5	0	0	---	0.00	30.010 
21:40	75.3	75.3	77.7	47	53.7	0	0	---	0.00	30.010 
21:45	74.7	74.7	74.7	48	53.7	0	0	---	0.00	30.011 
21:50	74.2	74.2	74.2	49	53.8	0	0	---	0.00	30.011 
21:55	73.7	73.7	73.7	50	53.9	0	0	---	0.00	30.011 
22:00	73.2	73.2	73.2	51	54.0	0	0	---	0.00	30.016 
22:05	72.7	72.7	72.7	53	54.6	0	0	---	0.00	30.016 
22:10	72.3	72.3	72.3	54	54.7	0	0	---	0.00	30.016 
22:15	72.0	72.0	72.0	55	54.9	0	0	---	0.00	30.017 
22:20	71.5	71.5	71.5	56	55.0	0	0	---	0.00	30.017 
22:25	70.9	70.9	70.9	57	54.9	0	0	---	0.00	30.017 
22:30	70.4	70.4	70.4	58	54.9	0	0	---	0.00	30.027 
22:35	70.1	70.1	70.1	58	54.6	0	0	---	0.00	30.027 
22:40	69.8	69.8	69.8	59	54.8	0	0	---	0.00	30.027 
22:45	69.4	69.4	69.4	60	54.9	0	0	---	0.00	30.030 
22:50	69.1	69.1	69.1	61	55.1	0	0	---	0.00	30.030 
22:55	68.8	68.8	68.8	62	55.2	0	0	---	0.00	30.030 
23:00	68.4	68.4	68.4	63	55.3	0	0	---	0.00	30.030 
23:05	68.3	68.3	68.3	64	55.6	0	0	---	0.00	30.030 
23:10	67.9	67.9	67.9	64	55.3	0	0	---	0.00	30.030 
23:15	67.6	67.6	67.6	65	55.4	0	0	---	0.00	30.027 
23:20	67.4	67.4	67.4	66	55.6	0	0	---	0.00	30.027 
23:25	67.3	67.3	67.3	67	56.0	0	0	---	0.00	30.027 
23:30	67.1	67.1	67.1	67	55.8	0	0	---	0.00	30.027 
23:35	66.8	66.8	66.8	69	56.3	0	0	---	0.00	30.027 
23:40	66.6	66.6	66.6	69	56.1	0	0	---	0.00	30.027 
23:45	66.4	66.4	66.4	71	56.7	0	0	---	0.00	30.028 
23:50	66.3	66.3	66.3	72	57.0	0	1	248	0.00	30.028 
23:55	66.1	66.1	66.1	73	57.2	0	0	---	0.00	30.028 

CoCoRaHS
IN-AL-39
A2 Web Hosting
Creative Commons License
GoDaddy
search engine by freefind advanced

loaded 2018-11-14 00:23:09 • last modified 2010-11-18 10:43:29
Privacy PolicyDisclaimer
• wx.awcolley.com is powered by PmWiki v.2002016 •
• all content (unless otherwise noted) © 2018 A W Colley